Time;durP1;ratioP1;P1;durP2;ratioP2;P2;SDS_P1;SDS_P2;PMS_P1;PMS_P2;Temp;Humidity;BMP_temperature;BMP_pressure;BME280_temperature;BME280_humidity;BME280_pressure;Samples;Min_cycle;Max_cycle;Signal;HPM_P1;HPM_P2
2024/01/28 00:01:16;;;;;;;22.30;7.30;;;;;;;;;;5049509;28;20029;-62
2024/01/28 00:03:41;;;;;;;20.17;7.82;;;;;;;;;;5050271;28;20044;-62
2024/01/28 00:06:06;;;;;;;18.95;8.30;;;;;;;;;;5039916;28;20029;-62
2024/01/28 00:08:32;;;;;;;19.02;7.97;;;;;;;;;;5052439;28;20028;-61
2024/01/28 00:10:57;;;;;;;17.42;7.68;;;;;;;;;;5053671;28;20570;-62
2024/01/28 00:13:25;;;;;;;23.77;8.35;;;;;;;;;;5052684;28;20037;-62
2024/01/28 00:15:54;;;;;;;21.25;8.60;;;;;;;;;;5049927;28;20033;-62
2024/01/28 00:18:20;;;;;;;18.20;7.63;;;;;;;;;;5033460;28;20489;-62
2024/01/28 00:20:47;;;;;;;22.85;8.23;;;;;;;;;;5016093;28;20036;-62
2024/01/28 00:23:12;;;;;;;20.77;7.95;;;;;;;;;;5033623;28;20482;-60
2024/01/28 00:25:38;;;;;;;25.63;8.82;;;;;;;;;;5049058;28;20110;-61
2024/01/28 00:28:03;;;;;;;20.58;8.88;;;;;;;;;;5051506;28;20025;-61
2024/01/28 00:30:32;;;;;;;19.88;8.35;;;;;;;;;;5051269;28;20478;-60
2024/01/28 00:32:58;;;;;;;20.88;7.88;;;;;;;;;;5050352;28;20035;-60
2024/01/28 00:35:23;;;;;;;21.45;8.20;;;;;;;;;;5051835;28;20481;-61
2024/01/28 00:37:48;;;;;;;19.25;7.38;;;;;;;;;;5050721;28;20039;-61
2024/01/28 00:40:14;;;;;;;21.75;7.95;;;;;;;;;;5051448;28;20036;-60
2024/01/28 00:42:39;;;;;;;20.88;7.70;;;;;;;;;;5049193;28;20082;-60
2024/01/28 00:45:05;;;;;;;20.45;7.72;;;;;;;;;;5047500;28;20074;-62
2024/01/28 00:47:31;;;;;;;17.88;8.00;;;;;;;;;;5049825;28;20362;-63
2024/01/28 00:49:56;;;;;;;16.65;7.78;;;;;;;;;;5053049;28;20028;-61
2024/01/28 00:52:21;;;;;;;18.75;7.28;;;;;;;;;;5048669;28;20067;-60
2024/01/28 00:54:47;;;;;;;17.63;7.10;;;;;;;;;;5049510;28;20040;-61
2024/01/28 00:57:12;;;;;;;23.80;7.35;;;;;;;;;;5052157;28;20044;-60
2024/01/28 00:59:37;;;;;;;15.80;6.68;;;;;;;;;;5051825;28;20032;-60
2024/01/28 01:02:03;;;;;;;14.18;6.35;;;;;;;;;;5051876;28;20487;-60
2024/01/28 01:04:29;;;;;;;15.88;6.80;;;;;;;;;;5051670;28;20032;-60
2024/01/28 01:06:54;;;;;;;14.65;6.55;;;;;;;;;;5049305;28;20033;-60
2024/01/28 01:09:19;;;;;;;16.55;6.97;;;;;;;;;;5049383;28;20033;-61
2024/01/28 01:11:45;;;;;;;16.23;7.10;;;;;;;;;;5051138;28;20393;-60
2024/01/28 01:14:10;;;;;;;18.45;7.28;;;;;;;;;;5049031;28;20036;-60
2024/01/28 01:16:36;;;;;;;16.67;7.30;;;;;;;;;;5050247;28;20784;-60
2024/01/28 01:19:01;;;;;;;16.90;6.53;;;;;;;;;;5047881;28;20033;-61
2024/01/28 01:21:26;;;;;;;16.80;7.10;;;;;;;;;;5039977;28;20147;-60
2024/01/28 01:23:52;;;;;;;17.73;6.47;;;;;;;;;;5051652;28;20550;-60
2024/01/28 01:26:17;;;;;;;13.90;6.45;;;;;;;;;;5050390;28;20031;-60
2024/01/28 01:28:43;;;;;;;15.40;6.75;;;;;;;;;;5048991;28;20037;-60
2024/01/28 01:31:08;;;;;;;13.77;6.22;;;;;;;;;;5032542;28;20033;-60
2024/01/28 01:33:34;;;;;;;15.13;6.32;;;;;;;;;;5031629;28;20444;-60
2024/01/28 01:35:59;;;;;;;19.00;6.68;;;;;;;;;;5032651;28;20087;-60
2024/01/28 01:38:25;;;;;;;18.27;6.95;;;;;;;;;;5035443;28;20462;-60
2024/01/28 01:40:50;;;;;;;15.73;6.18;;;;;;;;;;5052171;28;20035;-60
2024/01/28 01:43:15;;;;;;;16.88;6.00;;;;;;;;;;5046090;28;20041;-62
2024/01/28 01:45:44;;;;;;;11.20;5.57;;;;;;;;;;5031324;28;20517;-62
2024/01/28 01:48:10;;;;;;;12.95;5.43;;;;;;;;;;5031880;28;20045;-61
2024/01/28 01:50:37;;;;;;;12.10;5.18;;;;;;;;;;5031209;28;20152;-60
2024/01/28 01:53:04;;;;;;;12.60;5.65;;;;;;;;;;5042856;28;20061;-62
2024/01/28 01:55:30;;;;;;;13.43;5.47;;;;;;;;;;5049584;28;20044;-60
2024/01/28 01:57:56;;;;;;;13.20;4.75;;;;;;;;;;5050036;28;20033;-62
2024/01/28 02:00:22;;;;;;;13.75;5.38;;;;;;;;;;5051293;28;20162;-61
2024/01/28 02:02:47;;;;;;;13.15;5.55;;;;;;;;;;5047954;28;20119;-61
2024/01/28 02:05:13;;;;;;;15.32;5.68;;;;;;;;;;5050277;28;20393;-60
2024/01/28 02:07:38;;;;;;;11.25;5.65;;;;;;;;;;5047606;28;20048;-61
2024/01/28 02:10:05;;;;;;;16.20;6.05;;;;;;;;;;5049704;28;20033;-60
2024/01/28 02:12:31;;;;;;;15.88;6.45;;;;;;;;;;5049430;28;20032;-60
2024/01/28 02:15:07;;;;;;;15.18;6.60;;;;;;;;;;5048117;28;20021;-60
2024/01/28 02:17:33;;;;;;;15.00;6.57;;;;;;;;;;5036510;28;20041;-60
2024/01/28 02:19:59;;;;;;;15.95;7.00;;;;;;;;;;5050578;28;20033;-60
2024/01/28 02:22:24;;;;;;;16.73;6.53;;;;;;;;;;5046005;28;20079;-60
2024/01/28 02:24:53;;;;;;;19.65;7.40;;;;;;;;;;5050075;28;20037;-60
2024/01/28 02:27:18;;;;;;;16.95;6.97;;;;;;;;;;5054658;28;20397;-60
2024/01/28 02:29:44;;;;;;;16.50;7.30;;;;;;;;;;5039975;28;20041;-61
2024/01/28 02:32:14;;;;;;;17.77;7.30;;;;;;;;;;5055854;28;20033;-60
2024/01/28 02:34:40;;;;;;;16.95;7.15;;;;;;;;;;5052108;28;20036;-60
2024/01/28 02:37:05;;;;;;;19.50;6.55;;;;;;;;;;5050519;28;20033;-62
2024/01/28 02:39:30;;;;;;;14.07;6.47;;;;;;;;;;5052309;28;20025;-61
2024/01/28 02:41:56;;;;;;;17.05;6.90;;;;;;;;;;5054341;28;20036;-62
2024/01/28 02:44:21;;;;;;;17.67;7.10;;;;;;;;;;5052033;28;20112;-62
2024/01/28 02:46:46;;;;;;;13.40;6.13;;;;;;;;;;5053757;28;20044;-62
2024/01/28 02:49:12;;;;;;;14.63;6.55;;;;;;;;;;5051492;28;20127;-62
2024/01/28 02:51:37;;;;;;;14.07;6.63;;;;;;;;;;5050692;28;20033;-62
2024/01/28 02:54:03;;;;;;;16.48;7.00;;;;;;;;;;5039582;28;20458;-61
2024/01/28 02:56:29;;;;;;;13.48;6.72;;;;;;;;;;5051754;28;20032;-60
2024/01/28 02:58:54;;;;;;;14.68;6.38;;;;;;;;;;5052338;28;20430;-60
2024/01/28 03:01:20;;;;;;;14.82;6.47;;;;;;;;;;5054911;28;20078;-62
2024/01/28 03:03:45;;;;;;;15.10;6.20;;;;;;;;;;5050166;28;20501;-61
2024/01/28 03:06:11;;;;;;;15.70;6.35;;;;;;;;;;5053730;28;20029;-60
2024/01/28 03:08:36;;;;;;;13.75;6.22;;;;;;;;;;5051788;28;20493;-62
2024/01/28 03:11:02;;;;;;;15.95;6.20;;;;;;;;;;5050055;28;20448;-62
2024/01/28 03:13:27;;;;;;;15.25;5.65;;;;;;;;;;5053917;28;20040;-63
2024/01/28 03:15:54;;;;;;;15.80;6.45;;;;;;;;;;5050414;28;20098;-61
2024/01/28 03:18:21;;;;;;;13.07;6.15;;;;;;;;;;5034820;28;20481;-62
2024/01/28 03:20:46;;;;;;;14.77;5.88;;;;;;;;;;5035476;28;20048;-62
2024/01/28 03:23:12;;;;;;;14.77;5.95;;;;;;;;;;5052266;28;20045;-62
2024/01/28 03:25:37;;;;;;;17.55;5.95;;;;;;;;;;5053699;28;20043;-60
2024/01/28 03:28:03;;;;;;;13.77;5.80;;;;;;;;;;5050052;28;20037;-61
2024/01/28 03:30:29;;;;;;;12.70;6.00;;;;;;;;;;5053685;28;20035;-64
2024/01/28 03:32:54;;;;;;;13.95;5.90;;;;;;;;;;5051994;28;20025;-61
2024/01/28 03:35:19;;;;;;;13.52;5.68;;;;;;;;;;5049424;28;20029;-61
2024/01/28 03:37:46;;;;;;;12.05;6.00;;;;;;;;;;5052268;28;20029;-61
2024/01/28 03:40:12;;;;;;;16.02;5.72;;;;;;;;;;5053592;28;20112;-60
2024/01/28 03:42:37;;;;;;;10.48;5.03;;;;;;;;;;5051223;28;20108;-60
2024/01/28 03:45:03;;;;;;;12.70;5.25;;;;;;;;;;5051847;28;20033;-60
2024/01/28 03:47:29;;;;;;;12.40;5.57;;;;;;;;;;5051965;28;20044;-60
2024/01/28 03:49:54;;;;;;;12.93;5.22;;;;;;;;;;5052101;28;20033;-60
2024/01/28 03:52:20;;;;;;;13.48;5.00;;;;;;;;;;5050910;28;20037;-61
2024/01/28 03:54:45;;;;;;;14.10;5.22;;;;;;;;;;5053320;28;20179;-60
2024/01/28 03:57:10;;;;;;;14.00;5.30;;;;;;;;;;5051402;28;20028;-60
2024/01/28 03:59:39;;;;;;;13.30;5.20;;;;;;;;;;5051569;28;20450;-60
2024/01/28 04:02:05;;;;;;;15.85;5.38;;;;;;;;;;5049254;28;20119;-61
2024/01/28 04:04:30;;;;;;;13.40;5.10;;;;;;;;;;5046367;28;20166;-60
2024/01/28 04:06:55;;;;;;;11.52;4.65;;;;;;;;;;5047079;28;20070;-60
2024/01/28 04:09:21;;;;;;;14.32;5.38;;;;;;;;;;5051671;28;20412;-60
2024/01/28 04:11:46;;;;;;;11.82;5.03;;;;;;;;;;5048332;28;20168;-60
2024/01/28 04:14:12;;;;;;;12.75;5.07;;;;;;;;;;5053268;28;20095;-60
2024/01/28 04:16:37;;;;;;;11.55;4.63;;;;;;;;;;5049700;28;20115;-60
2024/01/28 04:19:02;;;;;;;11.90;4.97;;;;;;;;;;5049133;28;20025;-60
2024/01/28 04:21:29;;;;;;;13.82;5.28;;;;;;;;;;5051586;28;20094;-61
2024/01/28 04:23:56;;;;;;;11.52;5.18;;;;;;;;;;5046230;28;20052;-61
2024/01/28 04:26:22;;;;;;;15.40;5.32;;;;;;;;;;5051846;28;20086;-61
2024/01/28 04:28:47;;;;;;;11.43;5.25;;;;;;;;;;5050937;28;20029;-60
2024/01/28 04:31:13;;;;;;;15.75;6.47;;;;;;;;;;5053408;28;20062;-60
2024/01/28 04:33:39;;;;;;;12.15;5.72;;;;;;;;;;5048761;28;20038;-60
2024/01/28 04:36:05;;;;;;;13.30;5.75;;;;;;;;;;5051938;28;20539;-62
2024/01/28 04:38:31;;;;;;;14.70;5.60;;;;;;;;;;5049326;28;20065;-62
2024/01/28 04:40:57;;;;;;;14.95;5.65;;;;;;;;;;5049532;28;20053;-62
2024/01/28 04:43:22;;;;;;;13.63;5.45;;;;;;;;;;5051063;28;20035;-62
2024/01/28 04:45:47;;;;;;;14.07;5.72;;;;;;;;;;5051284;28;20037;-62
2024/01/28 04:48:13;;;;;;;14.07;5.95;;;;;;;;;;5049473;28;20506;-62
2024/01/28 04:50:38;;;;;;;13.90;5.80;;;;;;;;;;5050753;28;20124;-62
2024/01/28 04:53:04;;;;;;;13.60;5.57;;;;;;;;;;5050691;28;20052;-62
2024/01/28 04:55:29;;;;;;;13.60;5.55;;;;;;;;;;5049966;28;20108;-62
2024/01/28 04:57:54;;;;;;;13.88;6.18;;;;;;;;;;5052495;28;20029;-61
2024/01/28 05:00:20;;;;;;;17.45;6.38;;;;;;;;;;5051286;28;20033;-62
2024/01/28 05:02:46;;;;;;;14.80;6.07;;;;;;;;;;5049534;28;20041;-61
2024/01/28 05:05:12;;;;;;;17.35;6.07;;;;;;;;;;5053218;28;20036;-60
2024/01/28 05:07:37;;;;;;;13.80;6.10;;;;;;;;;;5047719;28;20036;-62
2024/01/28 05:10:03;;;;;;;13.82;6.47;;;;;;;;;;5050601;28;20029;-61
2024/01/28 05:12:28;;;;;;;15.48;6.40;;;;;;;;;;5049867;28;20098;-61
2024/01/28 05:14:54;;;;;;;13.35;6.10;;;;;;;;;;5048863;28;20033;-61
2024/01/28 05:17:19;;;;;;;13.38;6.25;;;;;;;;;;5039510;28;20021;-61
2024/01/28 05:19:45;;;;;;;14.13;6.28;;;;;;;;;;5031896;28;20038;-61
2024/01/28 05:22:11;;;;;;;14.13;5.93;;;;;;;;;;5050357;28;20447;-62
2024/01/28 05:24:36;;;;;;;14.98;6.25;;;;;;;;;;5035691;28;20029;-62
2024/01/28 05:27:02;;;;;;;11.80;5.95;;;;;;;;;;5043694;28;20040;-61
2024/01/28 05:29:28;;;;;;;14.27;6.60;;;;;;;;;;5034898;28;20025;-61
2024/01/28 05:31:53;;;;;;;13.45;6.25;;;;;;;;;;5047506;28;20081;-61
2024/01/28 05:34:19;;;;;;;13.57;6.13;;;;;;;;;;5048722;28;20492;-61
2024/01/28 05:36:50;;;;;;;12.60;5.85;;;;;;;;;;5051556;28;20079;-62
2024/01/28 05:39:19;;;;;;;14.68;6.32;;;;;;;;;;5052602;28;20072;-60
2024/01/28 05:41:44;;;;;;;13.80;5.75;;;;;;;;;;5041293;28;20021;-61
2024/01/28 05:44:10;;;;;;;15.65;5.78;;;;;;;;;;5035677;28;20032;-61
2024/01/28 05:46:36;;;;;;;13.57;6.00;;;;;;;;;;5040710;28;20484;-62
2024/01/28 05:49:01;;;;;;;15.30;6.57;;;;;;;;;;5046571;28;20029;-61
2024/01/28 05:51:27;;;;;;;11.82;5.65;;;;;;;;;;5050787;28;20041;-61
2024/01/28 05:53:54;;;;;;;12.65;5.75;;;;;;;;;;5047067;28;20780;-61
2024/01/28 05:56:20;;;;;;;15.55;6.00;;;;;;;;;;5052351;28;20171;-61
2024/01/28 05:58:45;;;;;;;12.98;6.38;;;;;;;;;;5050197;28;20472;-61
2024/01/28 06:01:11;;;;;;;15.85;5.80;;;;;;;;;;5051618;28;20025;-61
2024/01/28 06:03:37;;;;;;;13.70;5.70;;;;;;;;;;5049244;28;20032;-61
2024/01/28 06:06:03;;;;;;;15.93;6.00;;;;;;;;;;5051925;28;20041;-61
2024/01/28 06:08:29;;;;;;;10.85;5.20;;;;;;;;;;5056677;28;20374;-61
2024/01/28 06:10:55;;;;;;;17.63;5.47;;;;;;;;;;5070977;28;20094;-61
2024/01/28 06:13:21;;;;;;;14.25;5.57;;;;;;;;;;5041698;28;20029;-61
2024/01/28 06:15:46;;;;;;;12.88;4.95;;;;;;;;;;5032056;28;20485;-61
2024/01/28 06:18:11;;;;;;;15.23;5.72;;;;;;;;;;5035206;28;20071;-61
2024/01/28 06:20:37;;;;;;;11.50;5.03;;;;;;;;;;5051343;28;20087;-60
2024/01/28 06:23:03;;;;;;;12.48;5.10;;;;;;;;;;5036792;28;20049;-61
2024/01/28 06:25:29;;;;;;;12.70;4.97;;;;;;;;;;5033607;28;20115;-61
2024/01/28 06:27:54;;;;;;;11.35;5.32;;;;;;;;;;5050850;28;20040;-61
2024/01/28 06:30:20;;;;;;;15.90;5.47;;;;;;;;;;5050648;28;20056;-62
2024/01/28 06:32:45;;;;;;;11.65;4.90;;;;;;;;;;5049831;28;20029;-62
2024/01/28 06:35:10;;;;;;;12.40;5.05;;;;;;;;;;5051398;28;20057;-62
2024/01/28 06:37:36;;;;;;;8.93;5.50;;;;;;;;;;5051374;28;20128;-62
2024/01/28 06:40:02;;;;;;;13.55;5.20;;;;;;;;;;5051234;28;20041;-61
2024/01/28 06:42:29;;;;;;;13.70;5.60;;;;;;;;;;5042805;28;20033;-62
2024/01/28 06:44:55;;;;;;;10.80;5.20;;;;;;;;;;5044657;28;20116;-63
2024/01/28 06:47:20;;;;;;;13.05;5.72;;;;;;;;;;5051580;28;20178;-62
2024/01/28 06:49:50;;;;;;;12.98;5.50;;;;;;;;;;5050946;28;20502;-62
2024/01/28 06:52:15;;;;;;;11.98;5.18;;;;;;;;;;5050963;28;20022;-62
2024/01/28 06:54:43;;;;;;;12.77;5.28;;;;;;;;;;5048759;28;20048;-62
2024/01/28 06:57:09;;;;;;;8.88;5.10;;;;;;;;;;5051319;28;20099;-62
2024/01/28 06:59:35;;;;;;;13.38;5.57;;;;;;;;;;5051316;28;20037;-62
2024/01/28 07:02:00;;;;;;;12.02;5.00;;;;;;;;;;5044940;28;20024;-62
2024/01/28 07:04:26;;;;;;;11.50;5.00;;;;;;;;;;5040024;28;20108;-63
2024/01/28 07:06:51;;;;;;;14.77;5.88;;;;;;;;;;5049819;28;20083;-61
2024/01/28 07:09:18;;;;;;;11.48;5.13;;;;;;;;;;5039685;28;20478;-62
2024/01/28 07:11:44;;;;;;;9.93;4.55;;;;;;;;;;5049715;28;20032;-62
2024/01/28 07:14:10;;;;;;;9.10;4.63;;;;;;;;;;5054963;28;20386;-61
2024/01/28 07:16:35;;;;;;;11.45;4.72;;;;;;;;;;5054661;28;20098;-61
2024/01/28 07:19:01;;;;;;;10.45;5.70;;;;;;;;;;5053891;28;20916;-61
2024/01/28 07:21:26;;;;;;;11.18;5.95;;;;;;;;;;5042749;28;20478;-61
2024/01/28 07:23:52;;;;;;;10.25;5.40;;;;;;;;;;5034390;28;20050;-61
2024/01/28 07:26:17;;;;;;;12.73;5.10;;;;;;;;;;5052858;28;20455;-63
2024/01/28 07:28:43;;;;;;;10.02;5.28;;;;;;;;;;5053631;28;20029;-62
2024/01/28 07:31:09;;;;;;;9.05;5.03;;;;;;;;;;5040065;28;20282;-62
2024/01/28 07:33:35;;;;;;;12.80;5.20;;;;;;;;;;5035632;28;20025;-63
2024/01/28 07:36:01;;;;;;;12.13;5.10;;;;;;;;;;5053762;28;20253;-62
2024/01/28 07:38:26;;;;;;;12.10;5.28;;;;;;;;;;5054177;28;20461;-63
2024/01/28 07:40:52;;;;;;;11.55;5.15;;;;;;;;;;5048569;28;20086;-62
2024/01/28 07:43:17;;;;;;;14.27;5.35;;;;;;;;;;5054282;28;20474;-63
2024/01/28 07:45:43;;;;;;;12.25;4.97;;;;;;;;;;5053068;28;20087;-63
2024/01/28 07:48:08;;;;;;;11.77;5.45;;;;;;;;;;5054215;28;20521;-62
2024/01/28 07:50:34;;;;;;;13.20;5.32;;;;;;;;;;5053877;28;20029;-62
2024/01/28 07:52:59;;;;;;;12.85;5.13;;;;;;;;;;5053202;28;20305;-62
2024/01/28 07:55:25;;;;;;;10.45;5.10;;;;;;;;;;5054085;28;20432;-63
2024/01/28 07:57:50;;;;;;;11.88;4.75;;;;;;;;;;5052721;28;20091;-62
2024/01/28 08:00:16;;;;;;;9.68;5.03;;;;;;;;;;5053811;28;20104;-63
2024/01/28 08:02:41;;;;;;;9.20;5.18;;;;;;;;;;5051255;28;20140;-63
2024/01/28 08:05:07;;;;;;;10.38;4.75;;;;;;;;;;5035707;28;20540;-62
2024/01/28 08:07:32;;;;;;;10.50;4.90;;;;;;;;;;5033927;28;20112;-61
2024/01/28 08:09:58;;;;;;;11.30;4.78;;;;;;;;;;5035234;28;20033;-61
2024/01/28 08:12:23;;;;;;;14.45;4.65;;;;;;;;;;5037517;28;20040;-62
2024/01/28 08:14:49;;;;;;;10.45;5.07;;;;;;;;;;5038228;28;20029;-62
2024/01/28 08:17:14;;;;;;;10.82;4.90;;;;;;;;;;5034059;28;20041;-62
2024/01/28 08:19:40;;;;;;;12.45;5.05;;;;;;;;;;5036227;28;20044;-61
2024/01/28 08:22:05;;;;;;;12.93;4.70;;;;;;;;;;5068866;28;20064;-62
2024/01/28 08:24:31;;;;;;;11.30;4.70;;;;;;;;;;5050532;28;20075;-62
2024/01/28 08:26:58;;;;;;;11.32;4.93;;;;;;;;;;5050638;28;20040;-61
2024/01/28 08:29:24;;;;;;;10.05;4.70;;;;;;;;;;5034914;28;20413;-62
2024/01/28 08:31:49;;;;;;;10.88;4.78;;;;;;;;;;5043405;28;20112;-62
2024/01/28 08:34:15;;;;;;;8.20;4.28;;;;;;;;;;5052697;28;20029;-62
2024/01/28 08:36:40;;;;;;;9.98;4.85;;;;;;;;;;5053235;28;20461;-63
2024/01/28 08:39:06;;;;;;;9.77;4.70;;;;;;;;;;5051777;28;20085;-63
2024/01/28 08:41:31;;;;;;;9.40;4.78;;;;;;;;;;5053048;28;20086;-62
2024/01/28 08:43:57;;;;;;;9.07;4.72;;;;;;;;;;5049650;28;20090;-63
2024/01/28 08:46:22;;;;;;;11.00;4.80;;;;;;;;;;5053135;28;20521;-63
2024/01/28 08:48:48;;;;;;;11.13;4.72;;;;;;;;;;5047592;28;20041;-63
2024/01/28 08:51:13;;;;;;;10.00;4.70;;;;;;;;;;5073020;28;20530;-64
2024/01/28 08:53:38;;;;;;;8.68;4.53;;;;;;;;;;5045426;28;20036;-62
2024/01/28 08:56:04;;;;;;;9.07;4.55;;;;;;;;;;5060230;28;20687;-63
2024/01/28 08:58:30;;;;;;;10.43;4.70;;;;;;;;;;5050290;28;20033;-63
2024/01/28 09:00:56;;;;;;;10.30;4.38;;;;;;;;;;5040669;28;20043;-63
2024/01/28 09:03:22;;;;;;;7.57;4.60;;;;;;;;;;5040365;28;20433;-63
2024/01/28 09:05:47;;;;;;;12.10;4.80;;;;;;;;;;5042873;28;20037;-61
2024/01/28 09:08:13;;;;;;;8.75;4.30;;;;;;;;;;5052905;28;20462;-62
2024/01/28 09:10:38;;;;;;;8.75;4.43;;;;;;;;;;5062786;28;20183;-61
2024/01/28 09:13:04;;;;;;;8.93;4.35;;;;;;;;;;5061179;28;20025;-62
2024/01/28 09:15:29;;;;;;;11.77;4.45;;;;;;;;;;5052140;28;20440;-62
2024/01/28 09:17:55;;;;;;;7.15;3.92;;;;;;;;;;5047472;28;20063;-63
2024/01/28 09:20:20;;;;;;;8.95;4.13;;;;;;;;;;5049798;28;20036;-64
2024/01/28 09:22:46;;;;;;;7.63;4.10;;;;;;;;;;5048900;28;20041;-62
2024/01/28 09:25:11;;;;;;;9.75;4.45;;;;;;;;;;5048079;28;20033;-62
2024/01/28 09:27:37;;;;;;;8.05;4.35;;;;;;;;;;5031108;28;20360;-63
2024/01/28 09:30:02;;;;;;;9.48;4.28;;;;;;;;;;5031539;28;20056;-63
2024/01/28 09:32:28;;;;;;;7.88;4.03;;;;;;;;;;5031036;28;20033;-63
2024/01/28 09:34:53;;;;;;;12.38;4.40;;;;;;;;;;5031139;28;20026;-62
2024/01/28 09:37:19;;;;;;;9.20;4.05;;;;;;;;;;5038988;28;20088;-62
2024/01/28 09:39:45;;;;;;;10.18;4.53;;;;;;;;;;5032172;28;20029;-63
2024/01/28 09:42:21;;;;;;;7.63;4.28;;;;;;;;;;5031376;28;20478;-62
2024/01/28 09:44:49;;;;;;;8.10;4.47;;;;;;;;;;5032123;28;20029;-62
2024/01/28 09:47:15;;;;;;;11.00;4.55;;;;;;;;;;5031578;28;20093;-62
2024/01/28 09:49:41;;;;;;;7.75;4.03;;;;;;;;;;5050157;28;20114;-62
2024/01/28 09:52:09;;;;;;;9.07;4.43;;;;;;;;;;5042382;28;20251;-63
2024/01/28 09:54:35;;;;;;;8.73;4.07;;;;;;;;;;5032115;28;20060;-64
2024/01/28 09:57:03;;;;;;;8.73;4.40;;;;;;;;;;5031057;28;20466;-62
2024/01/28 09:59:29;;;;;;;10.00;4.60;;;;;;;;;;5032106;28;20037;-63
2024/01/28 10:01:55;;;;;;;7.80;4.28;;;;;;;;;;5031121;28;20040;-63
2024/01/28 10:04:21;;;;;;;9.05;4.95;;;;;;;;;;5032285;28;20036;-62
2024/01/28 10:06:48;;;;;;;9.98;4.68;;;;;;;;;;5032007;28;20022;-62
2024/01/28 10:09:14;;;;;;;10.85;4.80;;;;;;;;;;5030443;28;20359;-62
2024/01/28 10:11:39;;;;;;;8.70;4.75;;;;;;;;;;5031377;28;20029;-62
2024/01/28 10:14:05;;;;;;;10.90;5.25;;;;;;;;;;5030993;28;20517;-62
2024/01/28 10:16:31;;;;;;;9.18;4.80;;;;;;;;;;5031843;28;20113;-63
2024/01/28 10:18:57;;;;;;;9.60;4.70;;;;;;;;;;5043793;28;20037;-62
2024/01/28 10:21:22;;;;;;;8.73;4.57;;;;;;;;;;5051599;28;20036;-62
2024/01/28 10:23:48;;;;;;;13.98;4.50;;;;;;;;;;5051798;28;20474;-61
2024/01/28 10:26:15;;;;;;;10.43;5.00;;;;;;;;;;5050998;28;20033;-62
2024/01/28 10:28:40;;;;;;;8.38;4.70;;;;;;;;;;5051704;28;20033;-62
2024/01/28 10:31:06;;;;;;;9.90;4.57;;;;;;;;;;5050835;28;20473;-62
2024/01/28 10:33:32;;;;;;;9.38;4.55;;;;;;;;;;5051446;28;20103;-62
2024/01/28 10:36:01;;;;;;;9.20;4.45;;;;;;;;;;5048691;28;20521;-62
2024/01/28 10:38:29;;;;;;;10.25;5.05;;;;;;;;;;5051281;28;20139;-62
2024/01/28 10:40:54;;;;;;;10.20;5.03;;;;;;;;;;5050789;28;20021;-63
2024/01/28 10:43:30;;;;;;;9.55;4.70;;;;;;;;;;5051192;28;20033;-63
2024/01/28 10:45:55;;;;;;;8.98;4.70;;;;;;;;;;5050812;28;20033;-62
2024/01/28 10:48:23;;;;;;;8.25;4.45;;;;;;;;;;5055024;28;20025;-64
2024/01/28 10:50:53;;;;;;;10.40;5.13;;;;;;;;;;5055514;28;20112;-63
2024/01/28 10:53:21;;;;;;;10.23;4.78;;;;;;;;;;5053042;28;20119;-63
2024/01/28 10:55:46;;;;;;;8.88;5.45;;;;;;;;;;5039062;28;20466;-62
2024/01/28 10:58:12;;;;;;;10.18;4.90;;;;;;;;;;5034415;28;20033;-63
2024/01/28 11:00:38;;;;;;;10.70;5.50;;;;;;;;;;5035330;28;20036;-62
2024/01/28 11:03:06;;;;;;;9.82;5.20;;;;;;;;;;5034629;28;20458;-63
2024/01/28 11:05:33;;;;;;;9.68;5.40;;;;;;;;;;5050781;28;20029;-62
2024/01/28 11:08:01;;;;;;;10.45;5.35;;;;;;;;;;5034245;28;20034;-61
2024/01/28 11:10:34;;;;;;;10.98;5.40;;;;;;;;;;5034832;28;20570;-63
2024/01/28 11:13:00;;;;;;;8.10;5.28;;;;;;;;;;5034086;28;20021;-63
2024/01/28 11:15:30;;;;;;;10.82;5.57;;;;;;;;;;5035098;28;20025;-63
2024/01/28 11:17:55;;;;;;;10.82;7.00;;;;;;;;;;5040177;28;20025;-62
2024/01/28 11:20:32;;;;;;;9.80;6.30;;;;;;;;;;5055231;28;20043;-62
2024/01/28 11:23:01;;;;;;;11.82;7.50;;;;;;;;;;5053778;28;20045;-62
2024/01/28 11:25:30;;;;;;;9.32;7.45;;;;;;;;;;5052640;28;20032;-61
2024/01/28 11:28:05;;;;;;;11.27;7.95;;;;;;;;;;5048632;28;20486;-62
2024/01/28 11:30:31;;;;;;;10.30;8.65;;;;;;;;;;5053138;28;20070;-62
2024/01/28 11:33:16;;;;;;;12.80;9.40;;;;;;;;;;5050729;28;20029;-62
2024/01/28 11:35:44;;;;;;;11.73;10.52;;;;;;;;;;5054411;28;20047;-62
2024/01/28 11:38:14;;;;;;;13.48;10.18;;;;;;;;;;5053833;28;20028;-63
2024/01/28 11:40:40;;;;;;;11.23;10.13;;;;;;;;;;5054804;28;20032;-62
2024/01/28 11:43:07;;;;;;;11.68;10.48;;;;;;;;;;5053573;28;20044;-62
2024/01/28 11:45:35;;;;;;;12.73;11.15;;;;;;;;;;5054564;28;20033;-62
2024/01/28 11:48:06;;;;;;;12.13;10.82;;;;;;;;;;5041288;28;20387;-61
2024/01/28 11:50:31;;;;;;;12.38;11.13;;;;;;;;;;5034709;28;20026;-63
2024/01/28 11:52:57;;;;;;;13.15;11.70;;;;;;;;;;5033637;28;20026;-61
2024/01/28 11:55:22;;;;;;;13.07;11.73;;;;;;;;;;5044081;28;20033;-63
2024/01/28 11:57:48;;;;;;;13.15;11.88;;;;;;;;;;5049307;28;20052;-62
2024/01/28 12:00:15;;;;;;;13.48;12.07;;;;;;;;;;5051703;28;20028;-62
2024/01/28 12:02:41;;;;;;;13.63;12.32;;;;;;;;;;5054322;28;20036;-62
2024/01/28 12:05:07;;;;;;;14.55;13.05;;;;;;;;;;5053313;28;20029;-61
2024/01/28 12:07:35;;;;;;;14.02;12.63;;;;;;;;;;5052532;28;20040;-61
2024/01/28 12:10:02;;;;;;;15.48;12.93;;;;;;;;;;5053179;28;20112;-62
2024/01/28 12:12:28;;;;;;;14.05;12.63;;;;;;;;;;5053416;28;20025;-61
2024/01/28 12:14:57;;;;;;;14.30;12.30;;;;;;;;;;5033733;28;20107;-61
2024/01/28 12:17:23;;;;;;;13.70;12.38;;;;;;;;;;5033732;28;20029;-61
2024/01/28 12:19:50;;;;;;;14.07;12.55;;;;;;;;;;5033985;28;20028;-61
2024/01/28 12:22:16;;;;;;;13.15;11.93;;;;;;;;;;5032834;28;20041;-60
2024/01/28 12:24:45;;;;;;;12.70;11.60;;;;;;;;;;5036788;28;20029;-61
2024/01/28 12:27:11;;;;;;;12.52;11.43;;;;;;;;;;5042433;28;20118;-61
2024/01/28 12:29:36;;;;;;;12.55;11.45;;;;;;;;;;5033513;28;20490;-61
2024/01/28 12:32:01;;;;;;;12.63;11.52;;;;;;;;;;5032908;28;20030;-61
2024/01/28 12:34:28;;;;;;;12.45;11.35;;;;;;;;;;5033418;28;20413;-61
2024/01/28 12:36:53;;;;;;;12.93;11.60;;;;;;;;;;5033235;28;20095;-61
2024/01/28 12:39:19;;;;;;;12.57;11.45;;;;;;;;;;5032645;28;20029;-61
2024/01/28 12:41:44;;;;;;;12.63;11.43;;;;;;;;;;5033963;28;20470;-61
2024/01/28 12:44:10;;;;;;;12.70;11.55;;;;;;;;;;5032269;28;20037;-61
2024/01/28 12:46:35;;;;;;;12.52;11.32;;;;;;;;;;5033569;28;20061;-61
2024/01/28 12:49:01;;;;;;;12.50;11.30;;;;;;;;;;5032566;28;20033;-61
2024/01/28 12:51:26;;;;;;;12.30;11.20;;;;;;;;;;5033449;28;20477;-61
2024/01/28 12:53:51;;;;;;;12.20;11.10;;;;;;;;;;5032992;28;20033;-62
2024/01/28 12:56:17;;;;;;;12.15;11.05;;;;;;;;;;5047868;28;20103;-62
2024/01/28 12:58:43;;;;;;;12.40;11.20;;;;;;;;;;5053130;28;20059;-61
2024/01/28 13:01:09;;;;;;;12.50;11.30;;;;;;;;;;5052215;28;20020;-61
2024/01/28 13:03:35;;;;;;;12.35;11.25;;;;;;;;;;5052959;28;20033;-61
2024/01/28 13:06:01;;;;;;;12.40;11.30;;;;;;;;;;5052444;28;20029;-61
2024/01/28 13:08:26;;;;;;;12.65;11.45;;;;;;;;;;5035722;28;20159;-60
2024/01/28 13:10:53;;;;;;;12.80;11.57;;;;;;;;;;5032193;28;20074;-60
2024/01/28 13:13:19;;;;;;;13.00;11.80;;;;;;;;;;5031650;28;20021;-61
2024/01/28 13:15:44;;;;;;;12.90;11.70;;;;;;;;;;5032931;28;20025;-61
2024/01/28 13:18:10;;;;;;;12.73;11.63;;;;;;;;;;5032053;28;20115;-61
2024/01/28 13:20:35;;;;;;;12.77;11.50;;;;;;;;;;5032859;28;20030;-61
2024/01/28 13:23:01;;;;;;;13.02;11.82;;;;;;;;;;5044212;28;20060;-60
2024/01/28 13:25:26;;;;;;;13.20;11.90;;;;;;;;;;5052123;28;20056;-61
2024/01/28 13:27:51;;;;;;;13.07;11.88;;;;;;;;;;5052235;28;20025;-60
2024/01/28 13:30:17;;;;;;;12.68;11.55;;;;;;;;;;5051372;28;20128;-61
2024/01/28 13:32:46;;;;;;;12.82;11.63;;;;;;;;;;5052647;28;20021;-61
2024/01/28 13:35:11;;;;;;;12.63;11.50;;;;;;;;;;5051335;28;20044;-61
2024/01/28 13:37:47;;;;;;;12.80;11.65;;;;;;;;;;5048472;28;20033;-61
2024/01/28 13:40:12;;;;;;;12.90;11.60;;;;;;;;;;5031428;28;20433;-62
2024/01/28 13:42:38;;;;;;;12.93;11.73;;;;;;;;;;5032474;28;20083;-61
2024/01/28 13:45:06;;;;;;;12.82;11.63;;;;;;;;;;5031603;28;20087;-61
2024/01/28 13:47:35;;;;;;;13.30;12.00;;;;;;;;;;5032603;28;20124;-71
2024/01/28 13:50:00;;;;;;;13.02;11.82;;;;;;;;;;5040835;28;20356;-62
2024/01/28 13:52:26;;;;;;;13.57;12.27;;;;;;;;;;5037907;28;20033;-62
2024/01/28 13:54:52;;;;;;;13.40;12.10;;;;;;;;;;5036867;28;20043;-61
2024/01/28 13:57:17;;;;;;;13.18;12.00;;;;;;;;;;5046697;28;20032;-61
2024/01/28 13:59:43;;;;;;;13.05;11.85;;;;;;;;;;5051706;28;20032;-61
2024/01/28 14:02:09;;;;;;;13.15;11.90;;;;;;;;;;5048336;28;20108;-63
2024/01/28 14:04:34;;;;;;;13.57;12.38;;;;;;;;;;5036717;28;20386;-62
2024/01/28 14:06:59;;;;;;;12.90;11.70;;;;;;;;;;5031879;28;20033;-62
2024/01/28 14:09:25;;;;;;;12.77;11.68;;;;;;;;;;5052990;28;20045;-62
2024/01/28 14:11:50;;;;;;;13.10;11.80;;;;;;;;;;5049517;28;20029;-62
2024/01/28 14:14:15;;;;;;;12.98;11.77;;;;;;;;;;5030336;28;20030;-62
2024/01/28 14:16:42;;;;;;;13.30;12.07;;;;;;;;;;5033084;28;20029;-60
2024/01/28 14:19:07;;;;;;;13.20;12.00;;;;;;;;;;5044886;28;20034;-61
2024/01/28 14:21:32;;;;;;;13.30;12.10;;;;;;;;;;5039530;28;20031;-62